sensor_id;sensor_type;location;lat;lon;timestamp;P1;durP1;ratioP1;P2;durP2;ratioP2
31347;SDS011;21711;49.708;18.568;2024-03-06T00:01:10;73.03;;;32.08;;
31347;SDS011;21711;49.708;18.568;2024-03-06T00:03:37;81.95;;;33.85;;
31347;SDS011;21711;49.708;18.568;2024-03-06T00:06:05;80.22;;;32.65;;
31347;SDS011;21711;49.708;18.568;2024-03-06T00:08:32;72.70;;;31.50;;
31347;SDS011;21711;49.708;18.568;2024-03-06T00:11:00;84.30;;;34.60;;
31347;SDS011;21711;49.708;18.568;2024-03-06T00:13:28;93.95;;;34.15;;
31347;SDS011;21711;49.708;18.568;2024-03-06T00:15:56;83.80;;;32.70;;
31347;SDS011;21711;49.708;18.568;2024-03-06T00:18:23;90.18;;;34.67;;
31347;SDS011;21711;49.708;18.568;2024-03-06T00:20:51;91.20;;;34.55;;
31347;SDS011;21711;49.708;18.568;2024-03-06T00:23:18;92.25;;;36.10;;
31347;SDS011;21711;49.708;18.568;2024-03-06T00:25:46;95.63;;;37.40;;
31347;SDS011;21711;49.708;18.568;2024-03-06T00:28:13;92.30;;;37.55;;
31347;SDS011;21711;49.708;18.568;2024-03-06T00:30:41;98.93;;;36.63;;
31347;SDS011;21711;49.708;18.568;2024-03-06T00:33:09;93.22;;;37.63;;
31347;SDS011;21711;49.708;18.568;2024-03-06T00:35:36;90.80;;;36.78;;
31347;SDS011;21711;49.708;18.568;2024-03-06T00:38:04;103.95;;;38.95;;
31347;SDS011;21711;49.708;18.568;2024-03-06T00:40:31;90.43;;;35.53;;
31347;SDS011;21711;49.708;18.568;2024-03-06T00:42:59;98.57;;;36.08;;
31347;SDS011;21711;49.708;18.568;2024-03-06T00:45:26;100.60;;;38.03;;
31347;SDS011;21711;49.708;18.568;2024-03-06T00:47:54;95.25;;;35.60;;
31347;SDS011;21711;49.708;18.568;2024-03-06T00:50:21;89.88;;;34.67;;
31347;SDS011;21711;49.708;18.568;2024-03-06T00:52:49;96.47;;;35.28;;
31347;SDS011;21711;49.708;18.568;2024-03-06T00:55:16;93.93;;;34.50;;
31347;SDS011;21711;49.708;18.568;2024-03-06T00:57:44;104.35;;;35.38;;
31347;SDS011;21711;49.708;18.568;2024-03-06T01:00:11;86.38;;;33.70;;
31347;SDS011;21711;49.708;18.568;2024-03-06T01:02:39;92.50;;;33.90;;
31347;SDS011;21711;49.708;18.568;2024-03-06T01:05:07;90.85;;;33.97;;
31347;SDS011;21711;49.708;18.568;2024-03-06T01:07:39;102.60;;;35.53;;
31347;SDS011;21711;49.708;18.568;2024-03-06T01:10:07;93.30;;;33.45;;
31347;SDS011;21711;49.708;18.568;2024-03-06T01:12:35;89.95;;;33.40;;
31347;SDS011;21711;49.708;18.568;2024-03-06T01:15:03;99.47;;;33.75;;
31347;SDS011;21711;49.708;18.568;2024-03-06T01:17:31;87.25;;;34.38;;
31347;SDS011;21711;49.708;18.568;2024-03-06T01:19:58;83.60;;;32.28;;
31347;SDS011;21711;49.708;18.568;2024-03-06T01:22:26;92.38;;;32.42;;
31347;SDS011;21711;49.708;18.568;2024-03-06T01:24:54;90.60;;;32.28;;
31347;SDS011;21711;49.708;18.568;2024-03-06T01:27:21;89.72;;;34.47;;
31347;SDS011;21711;49.708;18.568;2024-03-06T01:29:48;89.95;;;34.25;;
31347;SDS011;21711;49.708;18.568;2024-03-06T01:32:15;89.65;;;34.83;;
31347;SDS011;21711;49.708;18.568;2024-03-06T01:34:43;93.90;;;34.33;;
31347;SDS011;21711;49.708;18.568;2024-03-06T01:37:11;89.93;;;34.17;;
31347;SDS011;21711;49.708;18.568;2024-03-06T01:39:38;92.90;;;33.20;;
31347;SDS011;21711;49.708;18.568;2024-03-06T01:42:05;82.22;;;33.03;;
31347;SDS011;21711;49.708;18.568;2024-03-06T01:44:33;92.78;;;35.22;;
31347;SDS011;21711;49.708;18.568;2024-03-06T01:47:00;99.32;;;36.17;;
31347;SDS011;21711;49.708;18.568;2024-03-06T01:49:27;101.63;;;36.00;;
31347;SDS011;21711;49.708;18.568;2024-03-06T01:52:07;102.90;;;34.88;;
31347;SDS011;21711;49.708;18.568;2024-03-06T01:54:39;97.07;;;35.92;;
31347;SDS011;21711;49.708;18.568;2024-03-06T01:57:07;100.53;;;36.28;;
31347;SDS011;21711;49.708;18.568;2024-03-06T01:59:37;98.63;;;34.88;;
31347;SDS011;21711;49.708;18.568;2024-03-06T02:02:05;102.90;;;36.55;;
31347;SDS011;21711;49.708;18.568;2024-03-06T02:04:34;95.22;;;36.33;;
31347;SDS011;21711;49.708;18.568;2024-03-06T02:07:02;88.00;;;33.03;;
31347;SDS011;21711;49.708;18.568;2024-03-06T02:09:30;93.13;;;32.67;;
31347;SDS011;21711;49.708;18.568;2024-03-06T02:11:57;80.72;;;30.80;;
31347;SDS011;21711;49.708;18.568;2024-03-06T02:14:25;88.53;;;29.58;;
31347;SDS011;21711;49.708;18.568;2024-03-06T02:16:53;86.03;;;29.70;;
31347;SDS011;21711;49.708;18.568;2024-03-06T02:19:21;80.57;;;28.73;;
31347;SDS011;21711;49.708;18.568;2024-03-06T02:21:49;82.45;;;30.23;;
31347;SDS011;21711;49.708;18.568;2024-03-06T02:24:16;85.53;;;31.08;;
31347;SDS011;21711;49.708;18.568;2024-03-06T02:26:43;78.93;;;30.30;;
31347;SDS011;21711;49.708;18.568;2024-03-06T02:29:11;86.22;;;28.92;;
31347;SDS011;21711;49.708;18.568;2024-03-06T02:31:38;79.60;;;29.50;;
31347;SDS011;21711;49.708;18.568;2024-03-06T02:34:06;75.70;;;28.48;;
31347;SDS011;21711;49.708;18.568;2024-03-06T02:36:33;82.88;;;31.20;;
31347;SDS011;21711;49.708;18.568;2024-03-06T02:39:00;73.63;;;26.92;;
31347;SDS011;21711;49.708;18.568;2024-03-06T02:41:28;76.78;;;28.65;;
31347;SDS011;21711;49.708;18.568;2024-03-06T02:43:56;89.43;;;29.77;;
31347;SDS011;21711;49.708;18.568;2024-03-06T02:46:24;93.18;;;31.73;;
31347;SDS011;21711;49.708;18.568;2024-03-06T02:48:52;83.35;;;31.02;;
31347;SDS011;21711;49.708;18.568;2024-03-06T02:51:20;79.50;;;29.45;;
31347;SDS011;21711;49.708;18.568;2024-03-06T02:53:48;80.35;;;31.42;;
31347;SDS011;21711;49.708;18.568;2024-03-06T02:56:19;81.57;;;30.55;;
31347;SDS011;21711;49.708;18.568;2024-03-06T02:58:47;86.88;;;29.63;;
31347;SDS011;21711;49.708;18.568;2024-03-06T03:01:15;89.25;;;31.73;;
31347;SDS011;21711;49.708;18.568;2024-03-06T03:03:43;93.00;;;31.63;;
31347;SDS011;21711;49.708;18.568;2024-03-06T03:06:12;81.25;;;29.75;;
31347;SDS011;21711;49.708;18.568;2024-03-06T03:08:40;91.30;;;31.38;;
31347;SDS011;21711;49.708;18.568;2024-03-06T03:11:07;79.15;;;29.95;;
31347;SDS011;21711;49.708;18.568;2024-03-06T03:13:35;75.68;;;30.73;;
31347;SDS011;21711;49.708;18.568;2024-03-06T03:16:02;79.60;;;30.10;;
31347;SDS011;21711;49.708;18.568;2024-03-06T03:18:30;77.68;;;27.88;;
31347;SDS011;21711;49.708;18.568;2024-03-06T03:20:58;70.95;;;28.25;;
31347;SDS011;21711;49.708;18.568;2024-03-06T03:23:25;69.90;;;28.52;;
31347;SDS011;21711;49.708;18.568;2024-03-06T03:25:52;68.50;;;25.98;;
31347;SDS011;21711;49.708;18.568;2024-03-06T03:28:19;70.93;;;26.95;;
31347;SDS011;21711;49.708;18.568;2024-03-06T03:30:47;83.50;;;28.80;;
31347;SDS011;21711;49.708;18.568;2024-03-06T03:33:14;73.88;;;25.90;;
31347;SDS011;21711;49.708;18.568;2024-03-06T03:35:41;78.35;;;28.05;;
31347;SDS011;21711;49.708;18.568;2024-03-06T03:38:09;72.15;;;28.55;;
31347;SDS011;21711;49.708;18.568;2024-03-06T03:40:36;66.75;;;26.52;;
31347;SDS011;21711;49.708;18.568;2024-03-06T03:43:04;67.70;;;26.45;;
31347;SDS011;21711;49.708;18.568;2024-03-06T03:45:33;69.60;;;26.98;;
31347;SDS011;21711;49.708;18.568;2024-03-06T03:48:02;70.90;;;27.27;;
31347;SDS011;21711;49.708;18.568;2024-03-06T03:50:31;68.63;;;25.85;;
31347;SDS011;21711;49.708;18.568;2024-03-06T03:52:59;74.05;;;26.15;;
31347;SDS011;21711;49.708;18.568;2024-03-06T03:55:28;67.93;;;25.90;;
31347;SDS011;21711;49.708;18.568;2024-03-06T03:57:55;60.00;;;24.52;;
31347;SDS011;21711;49.708;18.568;2024-03-06T04:00:23;61.05;;;24.50;;
31347;SDS011;21711;49.708;18.568;2024-03-06T04:02:50;69.25;;;23.95;;
31347;SDS011;21711;49.708;18.568;2024-03-06T04:05:18;62.55;;;24.13;;
31347;SDS011;21711;49.708;18.568;2024-03-06T04:07:45;71.00;;;25.35;;
31347;SDS011;21711;49.708;18.568;2024-03-06T04:10:13;72.53;;;25.05;;
31347;SDS011;21711;49.708;18.568;2024-03-06T04:12:41;55.92;;;23.42;;
31347;SDS011;21711;49.708;18.568;2024-03-06T04:15:09;55.92;;;22.52;;
31347;SDS011;21711;49.708;18.568;2024-03-06T04:17:36;55.60;;;21.83;;
31347;SDS011;21711;49.708;18.568;2024-03-06T04:20:04;48.67;;;20.80;;
31347;SDS011;21711;49.708;18.568;2024-03-06T04:22:33;60.17;;;23.02;;
31347;SDS011;21711;49.708;18.568;2024-03-06T04:25:00;60.58;;;23.67;;
31347;SDS011;21711;49.708;18.568;2024-03-06T04:27:30;66.88;;;24.17;;
31347;SDS011;21711;49.708;18.568;2024-03-06T04:29:59;70.65;;;25.45;;
31347;SDS011;21711;49.708;18.568;2024-03-06T04:32:27;62.90;;;24.98;;
31347;SDS011;21711;49.708;18.568;2024-03-06T04:34:54;73.25;;;25.88;;
31347;SDS011;21711;49.708;18.568;2024-03-06T04:37:23;78.07;;;26.38;;
31347;SDS011;21711;49.708;18.568;2024-03-06T04:39:50;72.25;;;27.33;;
31347;SDS011;21711;49.708;18.568;2024-03-06T04:42:17;70.13;;;26.63;;
31347;SDS011;21711;49.708;18.568;2024-03-06T04:44:45;78.53;;;27.98;;
31347;SDS011;21711;49.708;18.568;2024-03-06T04:47:12;76.20;;;27.15;;
31347;SDS011;21711;49.708;18.568;2024-03-06T04:49:39;75.53;;;26.73;;
31347;SDS011;21711;49.708;18.568;2024-03-06T04:52:07;85.20;;;30.95;;
31347;SDS011;21711;49.708;18.568;2024-03-06T04:54:35;76.53;;;28.70;;
31347;SDS011;21711;49.708;18.568;2024-03-06T04:57:03;84.78;;;29.65;;
31347;SDS011;21711;49.708;18.568;2024-03-06T04:59:30;89.70;;;31.48;;
31347;SDS011;21711;49.708;18.568;2024-03-06T05:01:58;85.47;;;29.42;;
31347;SDS011;21711;49.708;18.568;2024-03-06T05:04:25;80.63;;;28.48;;
31347;SDS011;21711;49.708;18.568;2024-03-06T05:07:10;77.78;;;29.48;;
31347;SDS011;21711;49.708;18.568;2024-03-06T05:09:55;74.38;;;27.35;;
31347;SDS011;21711;49.708;18.568;2024-03-06T05:12:41;76.03;;;26.30;;
31347;SDS011;21711;49.708;18.568;2024-03-06T05:15:26;77.05;;;28.80;;
31347;SDS011;21711;49.708;18.568;2024-03-06T05:18:11;79.95;;;28.92;;
31347;SDS011;21711;49.708;18.568;2024-03-06T05:20:55;83.60;;;28.38;;
31347;SDS011;21711;49.708;18.568;2024-03-06T05:23:40;101.15;;;33.10;;
31347;SDS011;21711;49.708;18.568;2024-03-06T05:26:25;92.65;;;30.30;;
31347;SDS011;21711;49.708;18.568;2024-03-06T05:29:10;94.75;;;31.60;;
31347;SDS011;21711;49.708;18.568;2024-03-06T05:31:56;94.30;;;31.42;;
31347;SDS011;21711;49.708;18.568;2024-03-06T05:34:41;85.78;;;31.23;;
31347;SDS011;21711;49.708;18.568;2024-03-06T05:37:26;96.43;;;32.00;;
31347;SDS011;21711;49.708;18.568;2024-03-06T05:40:12;97.53;;;33.72;;
31347;SDS011;21711;49.708;18.568;2024-03-06T05:42:58;95.38;;;32.80;;
31347;SDS011;21711;49.708;18.568;2024-03-06T05:45:43;106.40;;;33.22;;
31347;SDS011;21711;49.708;18.568;2024-03-06T05:48:28;97.47;;;33.75;;
31347;SDS011;21711;49.708;18.568;2024-03-06T05:51:13;106.55;;;33.85;;
31347;SDS011;21711;49.708;18.568;2024-03-06T05:53:59;109.63;;;35.78;;
31347;SDS011;21711;49.708;18.568;2024-03-06T05:56:44;107.32;;;34.67;;
31347;SDS011;21711;49.708;18.568;2024-03-06T05:59:31;97.20;;;33.83;;
31347;SDS011;21711;49.708;18.568;2024-03-06T06:01:59;102.50;;;35.20;;
31347;SDS011;21711;49.708;18.568;2024-03-06T06:04:27;107.60;;;33.63;;
31347;SDS011;21711;49.708;18.568;2024-03-06T06:06:58;96.82;;;31.88;;
31347;SDS011;21711;49.708;18.568;2024-03-06T06:09:26;96.72;;;34.83;;
31347;SDS011;21711;49.708;18.568;2024-03-06T06:11:54;89.35;;;30.88;;
31347;SDS011;21711;49.708;18.568;2024-03-06T06:14:22;96.75;;;33.78;;
31347;SDS011;21711;49.708;18.568;2024-03-06T06:16:51;86.10;;;33.22;;
31347;SDS011;21711;49.708;18.568;2024-03-06T06:19:19;78.93;;;29.52;;
31347;SDS011;21711;49.708;18.568;2024-03-06T06:21:46;71.88;;;27.75;;
31347;SDS011;21711;49.708;18.568;2024-03-06T06:24:14;84.30;;;31.55;;
31347;SDS011;21711;49.708;18.568;2024-03-06T06:26:41;83.30;;;31.20;;
31347;SDS011;21711;49.708;18.568;2024-03-06T06:29:09;75.32;;;29.83;;
31347;SDS011;21711;49.708;18.568;2024-03-06T06:31:36;67.60;;;27.85;;
31347;SDS011;21711;49.708;18.568;2024-03-06T06:34:04;78.93;;;29.83;;
31347;SDS011;21711;49.708;18.568;2024-03-06T06:36:31;160.82;;;30.92;;
31347;SDS011;21711;49.708;18.568;2024-03-06T06:38:58;76.82;;;34.35;;
31347;SDS011;21711;49.708;18.568;2024-03-06T06:41:31;119.32;;;26.25;;
31347;SDS011;21711;49.708;18.568;2024-03-06T06:43:59;105.10;;;26.20;;
31347;SDS011;21711;49.708;18.568;2024-03-06T06:46:26;124.18;;;27.48;;
31347;SDS011;21711;49.708;18.568;2024-03-06T06:48:53;259.92;;;28.10;;
31347;SDS011;21711;49.708;18.568;2024-03-06T06:51:20;170.52;;;25.27;;
31347;SDS011;21711;49.708;18.568;2024-03-06T06:53:50;87.70;;;22.25;;
31347;SDS011;21711;49.708;18.568;2024-03-06T06:56:17;43.85;;;19.65;;
31347;SDS011;21711;49.708;18.568;2024-03-06T06:58:44;64.15;;;22.23;;
31347;SDS011;21711;49.708;18.568;2024-03-06T07:01:12;50.40;;;22.00;;
31347;SDS011;21711;49.708;18.568;2024-03-06T07:03:40;44.53;;;21.50;;
31347;SDS011;21711;49.708;18.568;2024-03-06T07:06:07;43.38;;;20.13;;
31347;SDS011;21711;49.708;18.568;2024-03-06T07:08:35;37.20;;;18.48;;
31347;SDS011;21711;49.708;18.568;2024-03-06T07:11:02;44.88;;;20.42;;
31347;SDS011;21711;49.708;18.568;2024-03-06T07:13:30;42.28;;;20.98;;
31347;SDS011;21711;49.708;18.568;2024-03-06T07:15:57;43.95;;;21.13;;
31347;SDS011;21711;49.708;18.568;2024-03-06T07:18:24;45.47;;;20.08;;
31347;SDS011;21711;49.708;18.568;2024-03-06T07:20:52;40.85;;;19.27;;
31347;SDS011;21711;49.708;18.568;2024-03-06T07:23:19;37.00;;;18.60;;
31347;SDS011;21711;49.708;18.568;2024-03-06T07:25:47;38.78;;;18.67;;
31347;SDS011;21711;49.708;18.568;2024-03-06T07:28:14;35.90;;;17.27;;
31347;SDS011;21711;49.708;18.568;2024-03-06T07:30:41;36.80;;;17.63;;
31347;SDS011;21711;49.708;18.568;2024-03-06T07:33:09;28.88;;;15.20;;
31347;SDS011;21711;49.708;18.568;2024-03-06T07:35:36;30.30;;;15.25;;
31347;SDS011;21711;49.708;18.568;2024-03-06T07:38:04;30.33;;;16.25;;
31347;SDS011;21711;49.708;18.568;2024-03-06T07:40:32;32.97;;;16.08;;
31347;SDS011;21711;49.708;18.568;2024-03-06T07:42:59;32.67;;;15.80;;
31347;SDS011;21711;49.708;18.568;2024-03-06T07:45:27;37.30;;;19.05;;
31347;SDS011;21711;49.708;18.568;2024-03-06T07:47:54;31.52;;;16.90;;
31347;SDS011;21711;49.708;18.568;2024-03-06T07:50:21;37.35;;;20.15;;
31347;SDS011;21711;49.708;18.568;2024-03-06T07:55:21;40.25;;;21.55;;
31347;SDS011;21711;49.708;18.568;2024-03-06T07:57:48;41.72;;;21.63;;
31347;SDS011;21711;49.708;18.568;2024-03-06T08:00:16;50.97;;;26.50;;
31347;SDS011;21711;49.708;18.568;2024-03-06T08:02:46;47.45;;;25.83;;
31347;SDS011;21711;49.708;18.568;2024-03-06T08:05:17;52.42;;;26.48;;
31347;SDS011;21711;49.708;18.568;2024-03-06T08:07:45;52.25;;;28.08;;
31347;SDS011;21711;49.708;18.568;2024-03-06T08:10:12;53.83;;;28.17;;
31347;SDS011;21711;49.708;18.568;2024-03-06T08:12:41;52.85;;;30.63;;
31347;SDS011;21711;49.708;18.568;2024-03-06T08:15:12;53.35;;;28.88;;
31347;SDS011;21711;49.708;18.568;2024-03-06T08:17:43;52.10;;;27.23;;
31347;SDS011;21711;49.708;18.568;2024-03-06T08:20:11;54.10;;;27.27;;
31347;SDS011;21711;49.708;18.568;2024-03-06T08:22:39;56.10;;;28.13;;
31347;SDS011;21711;49.708;18.568;2024-03-06T08:25:10;55.17;;;28.25;;
31347;SDS011;21711;49.708;18.568;2024-03-06T08:27:39;58.03;;;28.42;;
31347;SDS011;21711;49.708;18.568;2024-03-06T08:30:08;58.13;;;28.95;;
31347;SDS011;21711;49.708;18.568;2024-03-06T08:32:36;59.45;;;28.05;;
31347;SDS011;21711;49.708;18.568;2024-03-06T08:35:05;49.30;;;24.63;;
31347;SDS011;21711;49.708;18.568;2024-03-06T08:37:44;55.15;;;25.90;;
31347;SDS011;21711;49.708;18.568;2024-03-06T08:40:12;50.92;;;24.67;;
31347;SDS011;21711;49.708;18.568;2024-03-06T08:42:42;55.55;;;25.42;;
31347;SDS011;21711;49.708;18.568;2024-03-06T08:45:16;49.72;;;25.42;;
31347;SDS011;21711;49.708;18.568;2024-03-06T08:47:44;53.45;;;24.98;;
31347;SDS011;21711;49.708;18.568;2024-03-06T08:50:14;63.40;;;26.80;;
31347;SDS011;21711;49.708;18.568;2024-03-06T08:52:41;58.72;;;26.40;;
31347;SDS011;21711;49.708;18.568;2024-03-06T08:55:09;60.45;;;25.15;;
31347;SDS011;21711;49.708;18.568;2024-03-06T08:57:37;54.35;;;26.27;;
31347;SDS011;21711;49.708;18.568;2024-03-06T09:00:05;54.97;;;24.63;;
31347;SDS011;21711;49.708;18.568;2024-03-06T09:02:38;54.42;;;25.77;;
31347;SDS011;21711;49.708;18.568;2024-03-06T09:05:08;53.92;;;23.42;;
31347;SDS011;21711;49.708;18.568;2024-03-06T09:07:37;48.92;;;22.48;;
31347;SDS011;21711;49.708;18.568;2024-03-06T09:10:08;42.15;;;19.63;;
31347;SDS011;21711;49.708;18.568;2024-03-06T09:12:39;41.58;;;19.65;;
31347;SDS011;21711;49.708;18.568;2024-03-06T09:15:08;36.20;;;18.08;;
31347;SDS011;21711;49.708;18.568;2024-03-06T09:17:36;32.97;;;16.45;;
31347;SDS011;21711;49.708;18.568;2024-03-06T09:20:05;29.77;;;15.82;;
31347;SDS011;21711;49.708;18.568;2024-03-06T09:22:38;27.08;;;15.23;;
31347;SDS011;21711;49.708;18.568;2024-03-06T09:25:07;27.17;;;15.65;;
31347;SDS011;21711;49.708;18.568;2024-03-06T09:27:35;30.92;;;17.00;;
31347;SDS011;21711;49.708;18.568;2024-03-06T09:30:03;28.30;;;16.58;;
31347;SDS011;21711;49.708;18.568;2024-03-06T09:32:31;34.05;;;19.10;;
31347;SDS011;21711;49.708;18.568;2024-03-06T09:34:59;37.10;;;20.20;;
31347;SDS011;21711;49.708;18.568;2024-03-06T09:37:27;37.13;;;21.23;;
31347;SDS011;21711;49.708;18.568;2024-03-06T09:39:55;34.22;;;21.27;;
31347;SDS011;21711;49.708;18.568;2024-03-06T09:42:23;39.88;;;23.08;;
31347;SDS011;21711;49.708;18.568;2024-03-06T09:44:51;36.03;;;21.27;;
31347;SDS011;21711;49.708;18.568;2024-03-06T09:47:21;40.88;;;22.13;;
31347;SDS011;21711;49.708;18.568;2024-03-06T09:49:52;40.30;;;22.73;;
31347;SDS011;21711;49.708;18.568;2024-03-06T09:52:23;41.67;;;22.38;;
31347;SDS011;21711;49.708;18.568;2024-03-06T09:54:53;39.22;;;21.52;;
31347;SDS011;21711;49.708;18.568;2024-03-06T09:57:22;38.78;;;21.55;;
31347;SDS011;21711;49.708;18.568;2024-03-06T09:59:50;38.15;;;21.33;;
31347;SDS011;21711;49.708;18.568;2024-03-06T10:02:28;41.70;;;20.25;;
31347;SDS011;21711;49.708;18.568;2024-03-06T10:04:59;34.58;;;20.27;;
31347;SDS011;21711;49.708;18.568;2024-03-06T10:07:29;40.50;;;21.23;;
31347;SDS011;21711;49.708;18.568;2024-03-06T10:09:57;50.55;;;21.88;;
31347;SDS011;21711;49.708;18.568;2024-03-06T10:12:24;40.78;;;20.48;;
31347;SDS011;21711;49.708;18.568;2024-03-06T10:14:56;38.58;;;18.55;;
31347;SDS011;21711;49.708;18.568;2024-03-06T10:17:24;39.45;;;18.85;;
31347;SDS011;21711;49.708;18.568;2024-03-06T10:19:54;35.97;;;18.10;;
31347;SDS011;21711;49.708;18.568;2024-03-06T10:22:25;38.38;;;19.30;;
31347;SDS011;21711;49.708;18.568;2024-03-06T10:24:55;40.20;;;19.45;;
31347;SDS011;21711;49.708;18.568;2024-03-06T10:27:23;35.85;;;16.65;;
31347;SDS011;21711;49.708;18.568;2024-03-06T10:30:11;37.92;;;18.60;;
31347;SDS011;21711;49.708;18.568;2024-03-06T10:32:42;35.15;;;18.85;;
31347;SDS011;21711;49.708;18.568;2024-03-06T10:35:17;39.95;;;18.83;;
31347;SDS011;21711;49.708;18.568;2024-03-06T10:37:46;36.45;;;19.80;;
31347;SDS011;21711;49.708;18.568;2024-03-06T10:40:15;37.42;;;19.30;;
31347;SDS011;21711;49.708;18.568;2024-03-06T10:42:43;37.40;;;20.25;;
31347;SDS011;21711;49.708;18.568;2024-03-06T10:45:15;35.13;;;19.05;;
31347;SDS011;21711;49.708;18.568;2024-03-06T10:47:46;36.83;;;19.05;;
31347;SDS011;21711;49.708;18.568;2024-03-06T10:50:15;39.97;;;21.20;;
31347;SDS011;21711;49.708;18.568;2024-03-06T10:52:44;41.30;;;22.27;;
31347;SDS011;21711;49.708;18.568;2024-03-06T10:55:13;37.67;;;20.92;;
31347;SDS011;21711;49.708;18.568;2024-03-06T10:57:42;39.40;;;22.55;;
31347;SDS011;21711;49.708;18.568;2024-03-06T11:00:10;42.33;;;22.83;;
31347;SDS011;21711;49.708;18.568;2024-03-06T11:02:47;40.92;;;23.23;;
31347;SDS011;21711;49.708;18.568;2024-03-06T11:05:16;39.45;;;23.50;;
31347;SDS011;21711;49.708;18.568;2024-03-06T11:07:43;42.65;;;24.63;;
31347;SDS011;21711;49.708;18.568;2024-03-06T11:10:11;45.67;;;27.02;;
31347;SDS011;21711;49.708;18.568;2024-03-06T11:12:43;46.95;;;27.10;;
31347;SDS011;21711;49.708;18.568;2024-03-06T11:15:15;41.67;;;23.85;;
31347;SDS011;21711;49.708;18.568;2024-03-06T11:17:43;45.30;;;26.65;;
31347;SDS011;21711;49.708;18.568;2024-03-06T11:20:16;40.70;;;25.05;;
31347;SDS011;21711;49.708;18.568;2024-03-06T11:28:22;38.75;;;23.25;;
31347;SDS011;21711;49.708;18.568;2024-03-06T11:33:34;40.30;;;24.50;;
31347;SDS011;21711;49.708;18.568;2024-03-06T11:36:14;47.55;;;24.00;;
31347;SDS011;21711;49.708;18.568;2024-03-06T11:41:25;41.47;;;24.08;;
31347;SDS011;21711;49.708;18.568;2024-03-06T11:43:55;44.20;;;25.92;;
31347;SDS011;21711;49.708;18.568;2024-03-06T11:46:45;41.10;;;24.42;;
31347;SDS011;21711;49.708;18.568;2024-03-06T11:49:35;38.30;;;24.13;;
31347;SDS011;21711;49.708;18.568;2024-03-06T11:52:06;37.33;;;23.73;;
31347;SDS011;21711;49.708;18.568;2024-03-06T11:57:03;38.65;;;23.42;;
31347;SDS011;21711;49.708;18.568;2024-03-06T11:59:33;34.17;;;22.13;;
31347;SDS011;21711;49.708;18.568;2024-03-06T12:02:03;37.88;;;23.27;;
31347;SDS011;21711;49.708;18.568;2024-03-06T12:04:33;35.70;;;23.63;;
31347;SDS011;21711;49.708;18.568;2024-03-06T12:07:05;36.92;;;24.48;;
31347;SDS011;21711;49.708;18.568;2024-03-06T12:09:34;38.67;;;24.10;;
31347;SDS011;21711;49.708;18.568;2024-03-06T12:12:08;40.80;;;25.73;;
31347;SDS011;21711;49.708;18.568;2024-03-06T12:14:36;35.75;;;22.77;;
31347;SDS011;21711;49.708;18.568;2024-03-06T12:17:10;40.92;;;22.95;;
31347;SDS011;21711;49.708;18.568;2024-03-06T12:19:42;36.13;;;21.75;;
31347;SDS011;21711;49.708;18.568;2024-03-06T12:22:13;38.17;;;22.10;;
31347;SDS011;21711;49.708;18.568;2024-03-06T12:24:45;39.70;;;21.85;;
31347;SDS011;21711;49.708;18.568;2024-03-06T12:27:13;35.00;;;20.85;;
31347;SDS011;21711;49.708;18.568;2024-03-06T12:29:40;37.72;;;19.75;;
31347;SDS011;21711;49.708;18.568;2024-03-06T12:32:16;39.22;;;20.65;;
31347;SDS011;21711;49.708;18.568;2024-03-06T12:34:55;36.22;;;19.23;;
31347;SDS011;21711;49.708;18.568;2024-03-06T12:37:28;37.75;;;19.63;;
31347;SDS011;21711;49.708;18.568;2024-03-06T12:40:05;39.28;;;20.25;;
31347;SDS011;21711;49.708;18.568;2024-03-06T12:42:40;40.25;;;20.60;;
31347;SDS011;21711;49.708;18.568;2024-03-06T12:45:07;41.60;;;21.65;;
31347;SDS011;21711;49.708;18.568;2024-03-06T12:47:36;42.72;;;20.23;;
31347;SDS011;21711;49.708;18.568;2024-03-06T12:50:04;41.03;;;18.65;;
31347;SDS011;21711;49.708;18.568;2024-03-06T12:52:34;50.17;;;21.15;;
31347;SDS011;21711;49.708;18.568;2024-03-06T12:55:02;43.67;;;20.83;;
31347;SDS011;21711;49.708;18.568;2024-03-06T12:57:32;43.75;;;19.95;;
31347;SDS011;21711;49.708;18.568;2024-03-06T13:00:00;39.97;;;19.98;;
31347;SDS011;21711;49.708;18.568;2024-03-06T13:02:27;44.40;;;20.75;;
31347;SDS011;21711;49.708;18.568;2024-03-06T13:04:55;45.13;;;22.25;;
31347;SDS011;21711;49.708;18.568;2024-03-06T13:07:22;42.50;;;19.23;;
31347;SDS011;21711;49.708;18.568;2024-03-06T13:09:49;44.63;;;19.17;;
31347;SDS011;21711;49.708;18.568;2024-03-06T13:12:17;45.20;;;20.95;;
31347;SDS011;21711;49.708;18.568;2024-03-06T13:14:44;45.40;;;21.35;;
31347;SDS011;21711;49.708;18.568;2024-03-06T13:17:12;42.58;;;20.05;;
31347;SDS011;21711;49.708;18.568;2024-03-06T13:19:39;44.35;;;21.20;;
31347;SDS011;21711;49.708;18.568;2024-03-06T13:22:06;41.72;;;19.10;;
31347;SDS011;21711;49.708;18.568;2024-03-06T13:24:34;43.40;;;19.30;;
31347;SDS011;21711;49.708;18.568;2024-03-06T13:27:05;38.67;;;18.40;;
31347;SDS011;21711;49.708;18.568;2024-03-06T13:29:33;43.38;;;19.58;;
31347;SDS011;21711;49.708;18.568;2024-03-06T13:32:00;43.45;;;18.77;;
31347;SDS011;21711;49.708;18.568;2024-03-06T13:34:28;49.13;;;19.05;;
31347;SDS011;21711;49.708;18.568;2024-03-06T13:36:57;43.50;;;19.83;;
31347;SDS011;21711;49.708;18.568;2024-03-06T13:39:26;38.63;;;17.60;;
31347;SDS011;21711;49.708;18.568;2024-03-06T13:41:53;43.53;;;18.63;;
31347;SDS011;21711;49.708;18.568;2024-03-06T13:44:21;42.05;;;19.65;;
31347;SDS011;21711;49.708;18.568;2024-03-06T13:46:48;39.60;;;18.02;;
31347;SDS011;21711;49.708;18.568;2024-03-06T13:49:35;42.63;;;18.45;;
31347;SDS011;21711;49.708;18.568;2024-03-06T13:52:05;38.08;;;18.13;;
31347;SDS011;21711;49.708;18.568;2024-03-06T13:54:41;39.45;;;17.13;;
31347;SDS011;21711;49.708;18.568;2024-03-06T13:57:10;39.08;;;18.65;;
31347;SDS011;21711;49.708;18.568;2024-03-06T13:59:37;46.15;;;19.65;;
31347;SDS011;21711;49.708;18.568;2024-03-06T14:02:06;43.80;;;18.83;;
31347;SDS011;21711;49.708;18.568;2024-03-06T14:04:34;43.58;;;18.60;;
31347;SDS011;21711;49.708;18.568;2024-03-06T14:07:02;43.90;;;18.08;;
31347;SDS011;21711;49.708;18.568;2024-03-06T14:09:30;40.17;;;17.85;;
31347;SDS011;21711;49.708;18.568;2024-03-06T14:11:57;39.40;;;18.73;;
31347;SDS011;21711;49.708;18.568;2024-03-06T14:14:25;40.72;;;18.88;;
31347;SDS011;21711;49.708;18.568;2024-03-06T14:16:53;42.92;;;16.85;;
31347;SDS011;21711;49.708;18.568;2024-03-06T14:19:20;41.28;;;17.92;;
31347;SDS011;21711;49.708;18.568;2024-03-06T14:21:48;39.53;;;17.33;;
31347;SDS011;21711;49.708;18.568;2024-03-06T14:24:16;46.45;;;18.95;;
31347;SDS011;21711;49.708;18.568;2024-03-06T14:26:43;42.30;;;18.92;;
31347;SDS011;21711;49.708;18.568;2024-03-06T14:29:11;40.97;;;19.45;;
31347;SDS011;21711;49.708;18.568;2024-03-06T14:31:38;42.58;;;18.17;;
31347;SDS011;21711;49.708;18.568;2024-03-06T14:34:06;40.63;;;18.08;;
31347;SDS011;21711;49.708;18.568;2024-03-06T14:36:33;35.17;;;16.95;;
31347;SDS011;21711;49.708;18.568;2024-03-06T14:39:01;40.00;;;17.25;;